createdAt,value
2023-05-02T00:00:47.050Z,6.63
2023-05-02T00:05:48.823Z,6.82
2023-05-02T00:10:50.541Z,6.72
2023-05-02T00:15:52.152Z,7.63
2023-05-02T00:20:53.782Z,6.97
2023-05-02T00:25:55.503Z,7.32
2023-05-02T00:30:57.157Z,7.10
2023-05-02T00:35:58.810Z,6.85
2023-05-02T00:41:00.539Z,6.50
2023-05-02T00:46:02.517Z,7.30
2023-05-02T00:51:08.708Z,7.20
2023-05-02T00:56:10.438Z,5.70
2023-05-02T01:01:30.497Z,6.13
2023-05-02T01:07:13.796Z,5.15
2023-05-02T01:12:29.106Z,6.10
2023-05-02T01:17:33.056Z,5.75
2023-05-02T01:22:38.032Z,7.10
2023-05-02T01:28:14.279Z,5.72
2023-05-02T01:33:17.744Z,5.75
2023-05-02T01:38:21.084Z,5.80
2023-05-02T01:43:26.333Z,6.60
2023-05-02T01:48:28.898Z,6.43
2023-05-02T01:53:34.262Z,5.75
2023-05-02T01:58:38.497Z,6.40
2023-05-02T02:03:40.412Z,5.95
2023-05-02T02:08:42.371Z,6.35
2023-05-02T02:13:51.048Z,6.68
2023-05-02T02:18:56.518Z,5.90
2023-05-02T02:24:03.120Z,5.90
2023-05-02T02:29:05.120Z,6.50
2023-05-02T02:34:07.464Z,6.10
2023-05-02T02:39:46.600Z,5.38
2023-05-02T02:44:56.951Z,5.65
2023-05-02T02:50:22.675Z,5.85
2023-05-02T02:55:36.758Z,5.07
2023-05-02T03:00:39.521Z,5.72
2023-05-02T03:05:43.789Z,5.30
2023-05-02T03:10:45.663Z,5.80
2023-05-02T03:15:58.806Z,5.20
2023-05-02T03:21:04.059Z,5.15
2023-05-02T03:26:06.263Z,4.47
2023-05-02T03:31:09.433Z,4.90
2023-05-02T03:36:14.938Z,5.32
2023-05-02T03:41:17.477Z,5.82
2023-05-02T03:46:19.750Z,5.40
2023-05-02T03:51:21.527Z,4.63
2023-05-02T03:56:26.727Z,5.72
2023-05-02T04:02:03.581Z,5.60
2023-05-02T04:07:18.397Z,5.85
2023-05-02T04:12:23.989Z,6.30
2023-05-02T04:17:27.493Z,5.40
2023-05-02T04:22:29.220Z,4.85
2023-05-02T04:27:34.986Z,4.32
2023-05-02T04:32:38.058Z,4.68
2023-05-02T04:37:40.659Z,5.20
2023-05-02T04:42:42.748Z,4.72
2023-05-02T04:47:49.433Z,5.15
2023-05-02T04:52:51.230Z,5.82
2023-05-02T04:57:53.022Z,6.13
2023-05-02T05:02:55.402Z,5.25
2023-05-02T05:07:57.176Z,5.55
2023-05-02T05:13:00.676Z,5.45
2023-05-02T05:18:03.175Z,5.72
2023-05-02T05:23:04.936Z,5.43
2023-05-02T05:28:06.677Z,4.88
2023-05-02T05:33:11.015Z,5.65
2023-05-02T05:38:13.109Z,4.40
2023-05-02T05:43:17.723Z,5.35
2023-05-02T05:48:20.122Z,4.95
2023-05-02T05:53:21.973Z,4.65
2023-05-02T05:58:24.894Z,4.88
2023-05-02T06:03:30.120Z,4.45
2023-05-02T06:08:32.080Z,5.28
2023-05-02T06:13:33.822Z,3.92
2023-05-02T06:18:35.846Z,4.43
2023-05-02T06:23:40.234Z,4.15
2023-05-02T06:28:42.050Z,3.97
2023-05-02T06:33:43.759Z,4.10
2023-05-02T06:38:45.384Z,4.15
2023-05-02T06:43:47.014Z,4.35
2023-05-02T06:48:48.866Z,3.70
2023-05-02T06:53:51.054Z,3.88
2023-05-02T06:58:52.717Z,4.30
2023-05-02T07:03:54.560Z,4.60
2023-05-02T07:08:56.214Z,3.95
2023-05-02T07:13:57.962Z,4.35
2023-05-02T07:19:00.223Z,5.20
2023-05-02T07:24:01.890Z,3.78
2023-05-02T07:29:03.552Z,4.22
2023-05-02T07:34:05.191Z,4.65
2023-05-02T07:39:06.892Z,3.95
2023-05-02T07:44:08.938Z,4.22
2023-05-02T07:49:10.735Z,4.38
2023-05-02T07:54:22.077Z,4.47
2023-05-02T07:59:23.702Z,3.45
2023-05-02T08:04:26.116Z,2.97
2023-05-02T08:09:27.833Z,3.17
2023-05-02T08:14:29.518Z,3.65
2023-05-02T08:19:32.015Z,4.32
2023-05-02T08:24:36.865Z,4.32
2023-05-02T08:29:38.556Z,4.43
2023-05-02T08:34:40.487Z,3.35
2023-05-02T08:39:42.259Z,3.83
2023-05-02T08:44:43.876Z,4.03
2023-05-02T08:49:46.573Z,4.00
2023-05-02T08:54:51.588Z,3.65
2023-05-02T08:59:53.282Z,3.47
2023-05-02T09:04:59.881Z,3.10
2023-05-02T09:10:02.117Z,3.53
2023-05-02T09:15:29.858Z,4.18
2023-05-02T09:20:40.682Z,4.18
2023-05-02T09:25:42.463Z,3.70
2023-05-02T09:30:44.159Z,4.20
2023-05-02T09:35:55.882Z,4.13
2023-05-02T09:40:57.650Z,4.85
2023-05-02T09:46:01.897Z,7.10
2023-05-02T09:51:04.867Z,6.75
2023-05-02T09:56:06.967Z,6.10
2023-05-02T10:01:14.928Z,6.43
2023-05-02T10:06:19.229Z,7.68
2023-05-02T10:11:21.878Z,6.25
2023-05-02T10:16:29.122Z,6.28
2023-05-02T10:21:32.532Z,5.95
2023-05-02T10:26:35.431Z,6.63
2023-05-02T10:31:39.802Z,6.53
2023-05-02T10:36:41.556Z,6.05
2023-05-02T10:41:44.323Z,7.25
2023-05-02T10:46:46.060Z,6.72
2023-05-02T10:51:47.811Z,6.63
2023-05-02T10:57:05.600Z,6.20
2023-05-02T11:02:27.979Z,6.28
2023-05-02T11:07:34.521Z,7.40
2023-05-02T11:12:49.179Z,7.72
2023-05-02T11:18:03.963Z,7.13
2023-05-02T11:23:21.784Z,7.50
2023-05-02T11:28:40.329Z,8.65
2023-05-02T11:33:41.939Z,6.25
2023-05-02T11:38:44.492Z,5.93
2023-05-02T11:43:47.141Z,7.10
2023-05-02T11:48:48.839Z,7.07
2023-05-02T11:53:50.678Z,6.75
2023-05-02T11:59:03.501Z,6.95
2023-05-02T12:04:07.606Z,6.07
2023-05-02T12:09:16.203Z,4.70
2023-05-02T12:14:17.905Z,5.20
2023-05-02T12:19:19.664Z,6.20
2023-05-02T12:24:21.543Z,5.50
2023-05-02T12:29:37.839Z,5.57
2023-05-02T12:34:40.150Z,5.05
2023-05-02T12:39:43.061Z,6.25
2023-05-02T12:44:46.593Z,6.35
2023-05-02T12:49:52.776Z,6.18
2023-05-02T12:54:54.426Z,5.97
2023-05-02T12:59:56.132Z,6.32
2023-05-02T13:04:57.763Z,7.28
2023-05-02T13:09:59.506Z,6.35
2023-05-02T13:15:01.316Z,5.80
2023-05-02T13:20:03.656Z,6.10
2023-05-02T13:25:07.097Z,6.18
2023-05-02T13:30:10.207Z,6.20
2023-05-02T13:35:14.114Z,5.75
2023-05-02T13:40:15.860Z,6.13
2023-05-02T13:45:17.933Z,6.25
2023-05-02T13:50:19.563Z,6.03
2023-05-02T13:55:21.257Z,7.47
2023-05-02T14:00:23.034Z,6.65
2023-05-02T14:05:24.624Z,6.78
2023-05-02T14:10:26.288Z,7.35
2023-05-02T14:15:28.169Z,7.72
2023-05-02T14:20:29.836Z,7.68
2023-05-02T14:25:31.445Z,5.97
2023-05-02T14:30:33.301Z,6.95
2023-05-02T14:35:34.932Z,5.85
2023-05-02T14:40:36.782Z,7.60
2023-05-02T14:45:38.410Z,9.05
2023-05-02T14:50:40.998Z,8.00
2023-05-02T14:55:42.709Z,5.45
2023-05-02T15:00:44.317Z,5.72
2023-05-02T15:05:46.133Z,5.47
2023-05-02T15:10:47.784Z,5.53
2023-05-02T15:15:49.549Z,5.95
2023-05-02T15:20:51.208Z,5.97
2023-05-02T15:25:52.823Z,5.55
2023-05-02T15:30:54.489Z,5.18
2023-05-02T15:36:00.706Z,4.88
2023-05-02T15:41:02.374Z,3.78
2023-05-02T15:46:04.091Z,3.50
2023-05-02T15:51:06.361Z,3.83
2023-05-02T15:56:12.163Z,3.78
2023-05-02T16:01:13.788Z,3.35
2023-05-02T16:06:16.636Z,3.67
2023-05-02T16:11:18.296Z,3.47
2023-05-02T16:16:19.973Z,3.85
2023-05-02T16:21:21.734Z,4.28
2023-05-02T16:26:23.410Z,4.18
2023-05-02T16:31:25.164Z,4.22
2023-05-02T16:36:27.899Z,4.10
2023-05-02T16:41:29.529Z,3.42
2023-05-02T16:46:31.676Z,3.88
2023-05-02T16:51:33.454Z,4.03
2023-05-02T16:56:35.063Z,4.45
2023-05-02T17:01:36.821Z,3.03
2023-05-02T17:06:39.192Z,4.07
2023-05-02T17:11:41.388Z,4.25
2023-05-02T17:16:43.101Z,3.97
2023-05-02T17:21:44.768Z,3.17
2023-05-02T17:26:46.580Z,4.25
2023-05-02T17:31:48.273Z,3.88
2023-05-02T17:36:49.883Z,3.20
2023-05-02T17:41:51.491Z,3.28
2023-05-02T17:46:53.522Z,3.25
2023-05-02T17:51:55.286Z,3.53
2023-05-02T17:56:57.357Z,2.85
2023-05-02T18:01:58.997Z,3.92
2023-05-02T18:07:02.511Z,3.08
2023-05-02T18:12:06.214Z,3.13
2023-05-02T18:17:09.885Z,2.90
2023-05-02T18:22:11.882Z,3.45
2023-05-02T18:27:13.562Z,2.45
2023-05-02T18:32:15.602Z,2.95
2023-05-02T18:37:17.206Z,2.50
2023-05-02T18:42:18.840Z,1.98
2023-05-02T18:47:21.507Z,2.33
2023-05-02T18:52:23.135Z,2.40
2023-05-02T18:57:25.362Z,2.03
2023-05-02T19:02:27.411Z,2.05
2023-05-02T19:07:29.101Z,2.20
2023-05-02T19:12:31.038Z,2.92
2023-05-02T19:17:32.702Z,2.50
2023-05-02T19:22:34.776Z,3.03
2023-05-02T19:27:36.592Z,2.20
2023-05-02T19:32:38.276Z,2.90
2023-05-02T19:37:39.878Z,2.90
2023-05-02T19:42:41.525Z,2.03
2023-05-02T19:47:45.452Z,3.20
2023-05-02T19:52:47.247Z,2.60
2023-05-02T19:57:49.030Z,2.63
2023-05-02T20:02:51.586Z,2.45
2023-05-02T20:07:53.409Z,2.75
2023-05-02T20:12:55.019Z,2.25
2023-05-02T20:17:59.307Z,2.50
2023-05-02T20:23:00.962Z,2.28
2023-05-02T20:28:02.575Z,2.92
2023-05-02T20:33:14.009Z,2.10
2023-05-02T20:38:17.808Z,2.50
2023-05-02T20:43:19.944Z,2.08
2023-05-02T20:48:21.658Z,2.42
2023-05-02T20:53:24.001Z,2.10
2023-05-02T20:58:26.311Z,2.70
2023-05-02T21:03:28.116Z,2.70
2023-05-02T21:08:29.910Z,2.80
2023-05-02T21:13:31.537Z,3.00
2023-05-02T21:18:33.183Z,2.50
2023-05-02T21:23:35.004Z,3.15
2023-05-02T21:28:38.568Z,3.13
2023-05-02T21:33:41.573Z,3.10
2023-05-02T21:38:43.188Z,2.65
2023-05-02T21:43:45.202Z,2.58
2023-05-02T21:48:46.875Z,2.42
2023-05-02T21:53:48.623Z,3.03
2023-05-02T21:58:51.383Z,2.70
2023-05-02T22:03:53.049Z,3.67
2023-05-02T22:08:54.689Z,2.63
2023-05-02T22:13:56.428Z,3.00
2023-05-02T22:18:58.157Z,2.78
2023-05-02T22:23:59.782Z,2.75
2023-05-02T22:29:01.400Z,3.95
2023-05-02T22:34:03.018Z,2.47
2023-05-02T22:39:08.982Z,2.38
2023-05-02T22:44:11.103Z,3.13
2023-05-02T22:49:12.728Z,2.58
2023-05-02T22:54:15.226Z,2.92
2023-05-02T22:59:17.665Z,2.67
2023-05-02T23:04:19.357Z,3.03
2023-05-02T23:09:21.216Z,2.80
2023-05-02T23:14:23.480Z,2.70
2023-05-02T23:19:25.934Z,2.58
2023-05-02T23:24:27.844Z,3.03
2023-05-02T23:29:29.490Z,3.05
2023-05-02T23:34:31.473Z,3.75
2023-05-02T23:39:33.532Z,4.28
2023-05-02T23:44:35.170Z,3.80
2023-05-02T23:49:37.232Z,4.30
2023-05-02T23:54:38.853Z,3.90
2023-05-02T23:59:40.502Z,4.00
